sensor_id;sensor_type;location;lat;lon;timestamp;pressure;altitude;pressure_sealevel;temperature;humidity
6094;BME280;19964;42.060;24.700;2024-01-16T00:01:08;96124.81;;;2.10;87.94
6094;BME280;19964;42.060;24.700;2024-01-16T00:03:35;96125.78;;;2.40;88.72
6094;BME280;19964;42.060;24.700;2024-01-16T00:06:04;96107.56;;;2.37;88.18
6094;BME280;19964;42.060;24.700;2024-01-16T00:08:32;96102.81;;;2.65;87.03
6094;BME280;19964;42.060;24.700;2024-01-16T00:10:59;96109.81;;;2.76;85.79
6094;BME280;19964;42.060;24.700;2024-01-16T00:13:28;96111.88;;;2.86;84.83
6094;BME280;19964;42.060;24.700;2024-01-16T00:15:55;96122.63;;;2.69;85.71
6094;BME280;19964;42.060;24.700;2024-01-16T00:18:22;96107.47;;;2.75;85.72
6094;BME280;19964;42.060;24.700;2024-01-16T00:20:49;96122.31;;;2.59;87.34
6094;BME280;19964;42.060;24.700;2024-01-16T00:23:17;96123.47;;;2.63;88.13
6094;BME280;19964;42.060;24.700;2024-01-16T00:25:44;96128.22;;;2.60;86.66
6094;BME280;19964;42.060;24.700;2024-01-16T00:28:11;96129.28;;;2.46;87.51
6094;BME280;19964;42.060;24.700;2024-01-16T00:30:38;96127.06;;;2.31;88.47
6094;BME280;19964;42.060;24.700;2024-01-16T00:33:06;96111.28;;;2.10;90.88
6094;BME280;19964;42.060;24.700;2024-01-16T00:35:33;96115.25;;;1.99;93.28
6094;BME280;19964;42.060;24.700;2024-01-16T00:38:00;96127.72;;;2.20;93.66
6094;BME280;19964;42.060;24.700;2024-01-16T00:40:28;96121.69;;;2.39;92.34
6094;BME280;19964;42.060;24.700;2024-01-16T00:42:55;96103.25;;;2.06;87.65
6094;BME280;19964;42.060;24.700;2024-01-16T00:45:22;96133.78;;;2.50;85.99
6094;BME280;19964;42.060;24.700;2024-01-16T00:47:49;96120.34;;;2.30;86.18
6094;BME280;19964;42.060;24.700;2024-01-16T00:50:16;96113.44;;;2.37;85.52
6094;BME280;19964;42.060;24.700;2024-01-16T00:52:43;96112.53;;;2.25;88.03
6094;BME280;19964;42.060;24.700;2024-01-16T00:55:10;96109.84;;;2.45;86.76
6094;BME280;19964;42.060;24.700;2024-01-16T00:57:38;96114.53;;;2.23;86.94
6094;BME280;19964;42.060;24.700;2024-01-16T01:00:07;96106.56;;;2.38;86.52
6094;BME280;19964;42.060;24.700;2024-01-16T01:02:35;96102.88;;;2.03;89.14
6094;BME280;19964;42.060;24.700;2024-01-16T01:05:02;96115.66;;;1.96;90.21
6094;BME280;19964;42.060;24.700;2024-01-16T01:07:29;96113.69;;;1.98;90.04
6094;BME280;19964;42.060;24.700;2024-01-16T01:09:56;96114.25;;;1.69;89.54
6094;BME280;19964;42.060;24.700;2024-01-16T01:12:23;96102.50;;;1.61;91.97
6094;BME280;19964;42.060;24.700;2024-01-16T01:14:51;96082.91;;;1.49;93.63
6094;BME280;19964;42.060;24.700;2024-01-16T01:17:18;96095.88;;;1.47;94.02
6094;BME280;19964;42.060;24.700;2024-01-16T01:19:46;96109.66;;;1.33;92.06
6094;BME280;19964;42.060;24.700;2024-01-16T01:22:13;96107.16;;;1.14;93.33
6094;BME280;19964;42.060;24.700;2024-01-16T01:24:40;96098.38;;;1.03;96.73
6094;BME280;19964;42.060;24.700;2024-01-16T01:27:06;96097.44;;;0.78;97.93
6094;BME280;19964;42.060;24.700;2024-01-16T01:29:33;96092.53;;;0.76;99.39
6094;BME280;19964;42.060;24.700;2024-01-16T01:32:02;96076.69;;;0.68;99.30
6094;BME280;19964;42.060;24.700;2024-01-16T01:34:29;96080.59;;;0.51;100.00
6094;BME280;19964;42.060;24.700;2024-01-16T01:36:56;96069.81;;;0.49;99.44
6094;BME280;19964;42.060;24.700;2024-01-16T01:39:23;96061.00;;;0.58;98.34
6094;BME280;19964;42.060;24.700;2024-01-16T01:41:50;96067.63;;;0.85;96.31
6094;BME280;19964;42.060;24.700;2024-01-16T01:44:17;96050.16;;;0.95;94.07
6094;BME280;19964;42.060;24.700;2024-01-16T01:46:44;96050.38;;;0.94;94.82
6094;BME280;19964;42.060;24.700;2024-01-16T01:49:13;96062.09;;;1.01;95.01
6094;BME280;19964;42.060;24.700;2024-01-16T01:51:41;96063.44;;;1.04;94.96
6094;BME280;19964;42.060;24.700;2024-01-16T01:54:10;96060.84;;;1.23;94.77
6094;BME280;19964;42.060;24.700;2024-01-16T01:56:38;96074.75;;;1.27;93.85
6094;BME280;19964;42.060;24.700;2024-01-16T01:59:06;96085.16;;;1.26;94.37
6094;BME280;19964;42.060;24.700;2024-01-16T02:01:34;96100.72;;;1.11;95.68
6094;BME280;19964;42.060;24.700;2024-01-16T02:04:02;96082.91;;;0.85;96.62
6094;BME280;19964;42.060;24.700;2024-01-16T02:06:30;96090.53;;;0.98;97.58
6094;BME280;19964;42.060;24.700;2024-01-16T02:08:58;96076.44;;;0.89;98.83
6094;BME280;19964;42.060;24.700;2024-01-16T02:11:25;96080.38;;;0.92;99.46
6094;BME280;19964;42.060;24.700;2024-01-16T02:13:52;96082.28;;;0.96;99.01
6094;BME280;19964;42.060;24.700;2024-01-16T02:16:19;96078.34;;;1.07;98.41
6094;BME280;19964;42.060;24.700;2024-01-16T02:18:47;96081.13;;;0.99;98.53
6094;BME280;19964;42.060;24.700;2024-01-16T02:21:18;96081.31;;;0.97;98.81
6094;BME280;19964;42.060;24.700;2024-01-16T02:23:48;96100.72;;;1.05;97.37
6094;BME280;19964;42.060;24.700;2024-01-16T02:26:16;96100.94;;;0.90;98.37
6094;BME280;19964;42.060;24.700;2024-01-16T02:28:43;96122.13;;;0.77;99.64
6094;BME280;19964;42.060;24.700;2024-01-16T02:31:10;96115.66;;;0.75;100.00
6094;BME280;19964;42.060;24.700;2024-01-16T02:33:37;96034.38;;;0.15;100.00
6094;BME280;19964;42.060;24.700;2024-01-16T02:36:05;96109.41;;;0.51;100.00
6094;BME280;19964;42.060;24.700;2024-01-16T02:38:32;96129.78;;;0.51;100.00
6094;BME280;19964;42.060;24.700;2024-01-16T02:41:01;96125.25;;;0.53;100.00
6094;BME280;19964;42.060;24.700;2024-01-16T02:43:28;96113.31;;;0.47;100.00
6094;BME280;19964;42.060;24.700;2024-01-16T02:45:55;96106.25;;;0.56;100.00
6094;BME280;19964;42.060;24.700;2024-01-16T02:48:22;96095.69;;;0.46;100.00
6094;BME280;19964;42.060;24.700;2024-01-16T02:50:48;96097.03;;;0.55;100.00
6094;BME280;19964;42.060;24.700;2024-01-16T02:53:15;96091.16;;;0.67;100.00
6094;BME280;19964;42.060;24.700;2024-01-16T02:55:42;96088.44;;;0.49;100.00
6094;BME280;19964;42.060;24.700;2024-01-16T02:58:11;96097.25;;;0.53;100.00
6094;BME280;19964;42.060;24.700;2024-01-16T03:00:38;96099.59;;;0.55;100.00
6094;BME280;19964;42.060;24.700;2024-01-16T03:03:05;96099.41;;;0.63;100.00
6094;BME280;19964;42.060;24.700;2024-01-16T03:05:33;96098.59;;;0.69;100.00
6094;BME280;19964;42.060;24.700;2024-01-16T03:08:00;96098.81;;;0.61;100.00
6094;BME280;19964;42.060;24.700;2024-01-16T03:10:27;96101.34;;;0.87;100.00
6094;BME280;19964;42.060;24.700;2024-01-16T03:12:54;96110.09;;;1.17;100.00
6094;BME280;19964;42.060;24.700;2024-01-16T03:15:23;96111.84;;;1.23;100.00
6094;BME280;19964;42.060;24.700;2024-01-16T03:17:51;96111.81;;;1.30;100.00
6094;BME280;19964;42.060;24.700;2024-01-16T03:20:18;96108.53;;;1.73;97.63
6094;BME280;19964;42.060;24.700;2024-01-16T03:22:45;96012.34;;;1.36;94.76
6094;BME280;19964;42.060;24.700;2024-01-16T03:25:12;96102.91;;;1.96;94.77
6094;BME280;19964;42.060;24.700;2024-01-16T03:27:39;96109.88;;;2.14;93.60
6094;BME280;19964;42.060;24.700;2024-01-16T03:30:07;96111.06;;;2.11;92.28
6094;BME280;19964;42.060;24.700;2024-01-16T03:32:36;96129.50;;;2.13;92.77
6094;BME280;19964;42.060;24.700;2024-01-16T03:35:05;96126.03;;;2.01;93.81
6094;BME280;19964;42.060;24.700;2024-01-16T03:37:32;96122.19;;;1.86;95.30
6094;BME280;19964;42.060;24.700;2024-01-16T03:39:59;96132.03;;;1.82;97.00
6094;BME280;19964;42.060;24.700;2024-01-16T03:42:27;96122.44;;;1.77;96.87
6094;BME280;19964;42.060;24.700;2024-01-16T03:44:55;96140.19;;;1.59;99.89
6094;BME280;19964;42.060;24.700;2024-01-16T03:47:22;96126.91;;;1.44;100.00
6094;BME280;19964;42.060;24.700;2024-01-16T03:49:50;96148.06;;;1.45;100.00
6094;BME280;19964;42.060;24.700;2024-01-16T03:52:18;96151.25;;;1.34;100.00
6094;BME280;19964;42.060;24.700;2024-01-16T03:54:45;96167.53;;;1.39;100.00
6094;BME280;19964;42.060;24.700;2024-01-16T03:57:12;96156.69;;;1.50;100.00
6094;BME280;19964;42.060;24.700;2024-01-16T03:59:38;96158.31;;;1.38;100.00
6094;BME280;19964;42.060;24.700;2024-01-16T04:02:05;96158.69;;;1.42;100.00
6094;BME280;19964;42.060;24.700;2024-01-16T04:04:32;96168.69;;;1.50;100.00
6094;BME280;19964;42.060;24.700;2024-01-16T04:07:01;96168.25;;;1.59;100.00
6094;BME280;19964;42.060;24.700;2024-01-16T04:09:28;96182.06;;;1.32;100.00
6094;BME280;19964;42.060;24.700;2024-01-16T04:11:55;96169.44;;;1.50;100.00
6094;BME280;19964;42.060;24.700;2024-01-16T04:14:22;96182.59;;;1.54;100.00
6094;BME280;19964;42.060;24.700;2024-01-16T04:16:49;96179.84;;;1.55;100.00
6094;BME280;19964;42.060;24.700;2024-01-16T04:19:16;96188.44;;;1.67;100.00
6094;BME280;19964;42.060;24.700;2024-01-16T04:21:43;96185.50;;;1.64;100.00
6094;BME280;19964;42.060;24.700;2024-01-16T04:24:12;96172.88;;;1.82;100.00
6094;BME280;19964;42.060;24.700;2024-01-16T04:26:39;96199.31;;;2.01;100.00
6094;BME280;19964;42.060;24.700;2024-01-16T04:29:06;96203.66;;;2.38;100.00
6094;BME280;19964;42.060;24.700;2024-01-16T04:31:39;96201.38;;;2.23;100.00
6094;BME280;19964;42.060;24.700;2024-01-16T04:34:06;96170.44;;;2.07;100.00
6094;BME280;19964;42.060;24.700;2024-01-16T04:36:34;96193.03;;;2.34;100.00
6094;BME280;19964;42.060;24.700;2024-01-16T04:39:01;96169.00;;;2.11;100.00
6094;BME280;19964;42.060;24.700;2024-01-16T04:41:30;96198.72;;;2.36;100.00
6094;BME280;19964;42.060;24.700;2024-01-16T04:43:57;96210.41;;;2.57;100.00
6094;BME280;19964;42.060;24.700;2024-01-16T04:46:24;96225.63;;;2.45;100.00
6094;BME280;19964;42.060;24.700;2024-01-16T04:48:51;96237.00;;;2.49;100.00
6094;BME280;19964;42.060;24.700;2024-01-16T04:51:18;96242.59;;;2.71;100.00
6094;BME280;19964;42.060;24.700;2024-01-16T04:53:45;96236.03;;;2.75;100.00
6094;BME280;19964;42.060;24.700;2024-01-16T04:56:12;96247.28;;;2.74;100.00
6094;BME280;19964;42.060;24.700;2024-01-16T04:58:40;96253.91;;;2.82;100.00
6094;BME280;19964;42.060;24.700;2024-01-16T05:01:07;96258.09;;;3.01;100.00
6094;BME280;19964;42.060;24.700;2024-01-16T05:03:34;96263.66;;;2.91;100.00
6094;BME280;19964;42.060;24.700;2024-01-16T05:06:02;96260.88;;;2.99;100.00
6094;BME280;19964;42.060;24.700;2024-01-16T05:08:29;96261.69;;;2.93;100.00
6094;BME280;19964;42.060;24.700;2024-01-16T05:10:56;96285.47;;;3.00;100.00
6094;BME280;19964;42.060;24.700;2024-01-16T05:13:23;96269.00;;;2.90;100.00
6094;BME280;19964;42.060;24.700;2024-01-16T05:15:51;96277.81;;;2.94;100.00
6094;BME280;19964;42.060;24.700;2024-01-16T05:18:18;96264.09;;;2.88;100.00
6094;BME280;19964;42.060;24.700;2024-01-16T05:20:46;96279.31;;;3.08;100.00
6094;BME280;19964;42.060;24.700;2024-01-16T05:23:13;96286.88;;;3.21;100.00
6094;BME280;19964;42.060;24.700;2024-01-16T05:25:40;96295.13;;;3.47;100.00
6094;BME280;19964;42.060;24.700;2024-01-16T05:28:07;96299.25;;;3.48;100.00
6094;BME280;19964;42.060;24.700;2024-01-16T05:30:34;96304.38;;;3.48;100.00
6094;BME280;19964;42.060;24.700;2024-01-16T05:33:02;96319.22;;;3.65;100.00
6094;BME280;19964;42.060;24.700;2024-01-16T05:35:29;96328.59;;;3.71;100.00
6094;BME280;19964;42.060;24.700;2024-01-16T05:37:57;96327.72;;;3.83;100.00
6094;BME280;19964;42.060;24.700;2024-01-16T05:40:24;96354.78;;;3.97;100.00
6094;BME280;19964;42.060;24.700;2024-01-16T05:42:51;96381.19;;;3.73;100.00
6094;BME280;19964;42.060;24.700;2024-01-16T05:45:19;96396.94;;;3.45;96.96
6094;BME280;19964;42.060;24.700;2024-01-16T05:47:46;96413.25;;;3.20;97.33
6094;BME280;19964;42.060;24.700;2024-01-16T05:50:14;96423.78;;;3.36;100.00
6094;BME280;19964;42.060;24.700;2024-01-16T05:52:43;96421.97;;;3.99;100.00
6094;BME280;19964;42.060;24.700;2024-01-16T05:55:10;96426.72;;;4.93;99.48
6094;BME280;19964;42.060;24.700;2024-01-16T05:57:37;96449.00;;;5.70;90.61
6094;BME280;19964;42.060;24.700;2024-01-16T06:00:05;96447.66;;;6.78;94.47
6094;BME280;19964;42.060;24.700;2024-01-16T06:02:32;96462.19;;;7.35;84.93
6094;BME280;19964;42.060;24.700;2024-01-16T06:04:59;96471.44;;;7.76;80.98
6094;BME280;19964;42.060;24.700;2024-01-16T06:07:29;96477.50;;;7.42;79.15
6094;BME280;19964;42.060;24.700;2024-01-16T06:09:56;96476.09;;;7.22;80.47
6094;BME280;19964;42.060;24.700;2024-01-16T06:12:23;96483.25;;;7.32;80.80
6094;BME280;19964;42.060;24.700;2024-01-16T06:14:50;96481.63;;;7.14;81.21
6094;BME280;19964;42.060;24.700;2024-01-16T06:17:17;96486.91;;;7.08;81.42
6094;BME280;19964;42.060;24.700;2024-01-16T06:19:44;96497.88;;;7.03;81.60
6094;BME280;19964;42.060;24.700;2024-01-16T06:22:12;96509.63;;;6.99;81.75
6094;BME280;19964;42.060;24.700;2024-01-16T06:24:40;96508.53;;;6.95;81.92
6094;BME280;19964;42.060;24.700;2024-01-16T06:27:08;96497.34;;;6.78;81.93
6094;BME280;19964;42.060;24.700;2024-01-16T06:29:35;96525.31;;;6.98;81.95
6094;BME280;19964;42.060;24.700;2024-01-16T06:32:02;96535.16;;;7.01;81.31
6094;BME280;19964;42.060;24.700;2024-01-16T06:34:29;96521.47;;;7.00;81.31
6094;BME280;19964;42.060;24.700;2024-01-16T06:36:56;96536.16;;;7.00;81.15
6094;BME280;19964;42.060;24.700;2024-01-16T06:39:23;96544.00;;;7.05;81.40
6094;BME280;19964;42.060;24.700;2024-01-16T06:41:51;96545.56;;;7.06;81.76
6094;BME280;19964;42.060;24.700;2024-01-16T06:44:18;96553.94;;;7.13;82.62
6094;BME280;19964;42.060;24.700;2024-01-16T06:46:45;96516.69;;;6.81;83.41
6094;BME280;19964;42.060;24.700;2024-01-16T06:49:12;96558.88;;;7.03;84.72
6094;BME280;19964;42.060;24.700;2024-01-16T06:51:40;96571.41;;;7.11;85.66
6094;BME280;19964;42.060;24.700;2024-01-16T06:54:07;96576.56;;;7.22;86.70
6094;BME280;19964;42.060;24.700;2024-01-16T06:56:34;96586.19;;;7.27;87.21
6094;BME280;19964;42.060;24.700;2024-01-16T06:59:02;96575.34;;;7.13;88.07
6094;BME280;19964;42.060;24.700;2024-01-16T07:01:29;96597.47;;;7.26;88.91
6094;BME280;19964;42.060;24.700;2024-01-16T07:03:56;96609.03;;;7.24;89.27
6094;BME280;19964;42.060;24.700;2024-01-16T07:06:23;96610.50;;;7.19;90.13
6094;BME280;19964;42.060;24.700;2024-01-16T07:08:50;96602.66;;;7.14;90.52
6094;BME280;19964;42.060;24.700;2024-01-16T07:11:17;96607.47;;;7.11;90.57
6094;BME280;19964;42.060;24.700;2024-01-16T07:13:44;96633.31;;;7.16;91.23
6094;BME280;19964;42.060;24.700;2024-01-16T07:16:13;96647.88;;;7.10;91.29
6094;BME280;19964;42.060;24.700;2024-01-16T07:18:40;96643.63;;;7.04;90.98
6094;BME280;19964;42.060;24.700;2024-01-16T07:21:16;96656.94;;;7.13;91.68
6094;BME280;19964;42.060;24.700;2024-01-16T07:23:43;96666.34;;;7.07;93.05
6094;BME280;19964;42.060;24.700;2024-01-16T07:26:10;96670.63;;;7.02;94.93
6094;BME280;19964;42.060;24.700;2024-01-16T07:28:38;96679.78;;;6.98;96.10
6094;BME280;19964;42.060;24.700;2024-01-16T07:31:05;96680.09;;;6.90;98.63
6094;BME280;19964;42.060;24.700;2024-01-16T07:33:33;96685.34;;;6.83;100.00
6094;BME280;19964;42.060;24.700;2024-01-16T07:36:00;96695.53;;;6.78;100.00
6094;BME280;19964;42.060;24.700;2024-01-16T07:38:28;96710.81;;;6.73;100.00
6094;BME280;19964;42.060;24.700;2024-01-16T07:40:55;96708.81;;;6.75;100.00
6094;BME280;19964;42.060;24.700;2024-01-16T07:43:22;96712.41;;;6.74;100.00
6094;BME280;19964;42.060;24.700;2024-01-16T07:45:49;96699.69;;;6.61;100.00
6094;BME280;19964;42.060;24.700;2024-01-16T07:48:16;96714.94;;;6.63;100.00
6094;BME280;19964;42.060;24.700;2024-01-16T07:50:45;96727.47;;;6.59;100.00
6094;BME280;19964;42.060;24.700;2024-01-16T07:53:12;96730.56;;;6.61;100.00
6094;BME280;19964;42.060;24.700;2024-01-16T07:55:39;96747.09;;;6.54;100.00
6094;BME280;19964;42.060;24.700;2024-01-16T07:58:06;96758.13;;;6.61;100.00
6094;BME280;19964;42.060;24.700;2024-01-16T08:00:33;96758.25;;;6.48;100.00
6094;BME280;19964;42.060;24.700;2024-01-16T08:03:01;96766.78;;;6.48;100.00
6094;BME280;19964;42.060;24.700;2024-01-16T08:05:28;96761.41;;;6.50;100.00
6094;BME280;19964;42.060;24.700;2024-01-16T08:07:57;96773.50;;;6.49;100.00
6094;BME280;19964;42.060;24.700;2024-01-16T08:10:24;96783.63;;;6.44;100.00
6094;BME280;19964;42.060;24.700;2024-01-16T08:12:51;96758.81;;;6.20;100.00
6094;BME280;19964;42.060;24.700;2024-01-16T08:15:18;96793.81;;;6.39;100.00
6094;BME280;19964;42.060;24.700;2024-01-16T08:17:45;96804.50;;;6.54;100.00
6094;BME280;19964;42.060;24.700;2024-01-16T08:20:13;96806.66;;;6.39;99.60
6094;BME280;19964;42.060;24.700;2024-01-16T08:22:40;96789.22;;;6.41;98.82
6094;BME280;19964;42.060;24.700;2024-01-16T08:25:09;96826.56;;;6.62;97.58
6094;BME280;19964;42.060;24.700;2024-01-16T08:27:36;96827.50;;;6.67;95.13
6094;BME280;19964;42.060;24.700;2024-01-16T08:30:04;96837.28;;;6.77;94.77
6094;BME280;19964;42.060;24.700;2024-01-16T08:32:32;96828.72;;;6.94;93.69
6094;BME280;19964;42.060;24.700;2024-01-16T08:34:59;96825.97;;;6.96;93.01
6094;BME280;19964;42.060;24.700;2024-01-16T08:37:26;96831.22;;;7.01;91.73
6094;BME280;19964;42.060;24.700;2024-01-16T08:39:53;96837.13;;;6.90;90.83
6094;BME280;19964;42.060;24.700;2024-01-16T08:42:22;96838.03;;;6.95;89.84
6094;BME280;19964;42.060;24.700;2024-01-16T08:44:49;96853.28;;;6.97;88.33
6094;BME280;19964;42.060;24.700;2024-01-16T08:47:16;96810.53;;;6.78;86.98
6094;BME280;19964;42.060;24.700;2024-01-16T08:49:44;96864.34;;;7.15;85.45
6094;BME280;19964;42.060;24.700;2024-01-16T08:52:11;96867.56;;;7.11;83.95
6094;BME280;19964;42.060;24.700;2024-01-16T08:54:38;96871.69;;;7.12;83.59
6094;BME280;19964;42.060;24.700;2024-01-16T08:57:05;96885.97;;;7.26;82.52
6094;BME280;19964;42.060;24.700;2024-01-16T08:59:34;96894.59;;;7.32;81.89
6094;BME280;19964;42.060;24.700;2024-01-16T09:02:01;96895.06;;;7.29;80.74
6094;BME280;19964;42.060;24.700;2024-01-16T09:04:29;96897.34;;;7.37;79.30
6094;BME280;19964;42.060;24.700;2024-01-16T09:06:56;96899.94;;;7.48;79.54
6094;BME280;19964;42.060;24.700;2024-01-16T09:09:23;96905.53;;;7.45;78.49
6094;BME280;19964;42.060;24.700;2024-01-16T09:11:50;96909.22;;;7.49;77.74
6094;BME280;19964;42.060;24.700;2024-01-16T09:14:17;96908.00;;;7.52;77.36
6094;BME280;19964;42.060;24.700;2024-01-16T09:16:47;96913.44;;;7.62;76.55
6094;BME280;19964;42.060;24.700;2024-01-16T09:19:14;96907.75;;;7.71;76.01
6094;BME280;19964;42.060;24.700;2024-01-16T09:21:41;96901.25;;;7.80;74.60
6094;BME280;19964;42.060;24.700;2024-01-16T09:24:08;96893.16;;;7.77;74.13
6094;BME280;19964;42.060;24.700;2024-01-16T09:26:35;96892.78;;;8.03;71.96
6094;BME280;19964;42.060;24.700;2024-01-16T09:29:03;96918.16;;;8.41;70.75
6094;BME280;19964;42.060;24.700;2024-01-16T09:31:30;96915.31;;;8.88;69.47
6094;BME280;19964;42.060;24.700;2024-01-16T09:33:58;96907.84;;;9.04;66.06
6094;BME280;19964;42.060;24.700;2024-01-16T09:36:25;96911.34;;;8.97;65.87
6094;BME280;19964;42.060;24.700;2024-01-16T09:38:52;96923.50;;;8.74;66.68
6094;BME280;19964;42.060;24.700;2024-01-16T09:41:19;96927.13;;;8.73;66.04
6094;BME280;19964;42.060;24.700;2024-01-16T09:43:47;96929.50;;;8.51;65.52
6094;BME280;19964;42.060;24.700;2024-01-16T09:46:15;96935.53;;;8.34;65.28
6094;BME280;19964;42.060;24.700;2024-01-16T09:48:44;96925.31;;;8.39;64.83
6094;BME280;19964;42.060;24.700;2024-01-16T09:51:13;96944.19;;;8.28;63.73
6094;BME280;19964;42.060;24.700;2024-01-16T09:53:41;96942.97;;;8.30;63.79
6094;BME280;19964;42.060;24.700;2024-01-16T09:56:13;96944.31;;;8.44;62.93
6094;BME280;19964;42.060;24.700;2024-01-16T09:58:41;96951.56;;;8.24;63.35
6094;BME280;19964;42.060;24.700;2024-01-16T10:01:11;96959.91;;;8.38;61.91
6094;BME280;19964;42.060;24.700;2024-01-16T10:03:38;96956.19;;;8.34;60.91
6094;BME280;19964;42.060;24.700;2024-01-16T10:06:08;96962.06;;;8.52;60.22
6094;BME280;19964;42.060;24.700;2024-01-16T10:08:36;96972.00;;;9.07;59.00
6094;BME280;19964;42.060;24.700;2024-01-16T10:11:04;96973.50;;;9.31;58.18
6094;BME280;19964;42.060;24.700;2024-01-16T10:13:32;96967.44;;;9.25;57.13
6094;BME280;19964;42.060;24.700;2024-01-16T10:15:59;96983.31;;;9.06;57.11
6094;BME280;19964;42.060;24.700;2024-01-16T10:18:28;96987.59;;;9.12;55.94
6094;BME280;19964;42.060;24.700;2024-01-16T10:20:56;96987.03;;;9.10;56.19
6094;BME280;19964;42.060;24.700;2024-01-16T10:23:24;96988.41;;;8.89;55.65
6094;BME280;19964;42.060;24.700;2024-01-16T10:26:09;96979.75;;;8.95;55.61
6094;BME280;19964;42.060;24.700;2024-01-16T10:28:38;96992.78;;;9.00;55.34
6094;BME280;19964;42.060;24.700;2024-01-16T10:31:06;96997.03;;;8.94;54.42
6094;BME280;19964;42.060;24.700;2024-01-16T10:33:34;96989.94;;;9.13;54.64
6094;BME280;19964;42.060;24.700;2024-01-16T10:36:10;97001.53;;;9.11;54.08
6094;BME280;19964;42.060;24.700;2024-01-16T10:38:38;97007.09;;;9.19;54.27
6094;BME280;19964;42.060;24.700;2024-01-16T10:41:16;97006.81;;;9.04;54.00
6094;BME280;19964;42.060;24.700;2024-01-16T10:43:44;97006.69;;;8.87;54.37
6094;BME280;19964;42.060;24.700;2024-01-16T10:46:12;97004.47;;;8.68;54.61
6094;BME280;19964;42.060;24.700;2024-01-16T10:48:41;96993.22;;;8.51;54.39
6094;BME280;19964;42.060;24.700;2024-01-16T10:51:10;96996.94;;;8.43;54.87
6094;BME280;19964;42.060;24.700;2024-01-16T10:53:42;97022.50;;;8.45;54.97
6094;BME280;19964;42.060;24.700;2024-01-16T10:56:11;97009.72;;;8.38;56.09
6094;BME280;19964;42.060;24.700;2024-01-16T10:58:41;97019.28;;;8.20;55.49
6094;BME280;19964;42.060;24.700;2024-01-16T11:01:10;97005.78;;;8.36;55.36
6094;BME280;19964;42.060;24.700;2024-01-16T11:03:41;97002.25;;;8.19;56.15
6094;BME280;19964;42.060;24.700;2024-01-16T11:06:10;97005.75;;;8.24;55.29
6094;BME280;19964;42.060;24.700;2024-01-16T11:08:39;97005.44;;;8.32;55.34
6094;BME280;19964;42.060;24.700;2024-01-16T11:11:07;97010.63;;;8.55;55.71
6094;BME280;19964;42.060;24.700;2024-01-16T11:13:36;97007.50;;;8.65;54.91
6094;BME280;19964;42.060;24.700;2024-01-16T11:16:05;97017.47;;;8.38;54.24
6094;BME280;19964;42.060;24.700;2024-01-16T11:18:34;97019.59;;;8.64;54.40
6094;BME280;19964;42.060;24.700;2024-01-16T11:21:04;97028.47;;;8.68;54.60
6094;BME280;19964;42.060;24.700;2024-01-16T11:23:31;97045.56;;;8.58;54.21
6094;BME280;19964;42.060;24.700;2024-01-16T11:26:00;97014.44;;;8.53;53.10
6094;BME280;19964;42.060;24.700;2024-01-16T11:28:47;97038.38;;;8.71;53.03
6094;BME280;19964;42.060;24.700;2024-01-16T11:31:29;97015.81;;;8.67;51.59
6094;BME280;19964;42.060;24.700;2024-01-16T11:33:57;97033.97;;;8.60;52.10
6094;BME280;19964;42.060;24.700;2024-01-16T11:36:49;97020.50;;;8.47;52.12
6094;BME280;19964;42.060;24.700;2024-01-16T11:39:20;97043.53;;;8.71;52.79
6094;BME280;19964;42.060;24.700;2024-01-16T11:41:51;97048.25;;;8.86;50.56
6094;BME280;19964;42.060;24.700;2024-01-16T11:44:41;97050.03;;;8.85;50.93
6094;BME280;19964;42.060;24.700;2024-01-16T11:47:15;97053.88;;;9.06;50.56
6094;BME280;19964;42.060;24.700;2024-01-16T11:49:42;97030.38;;;9.08;49.63
6094;BME280;19964;42.060;24.700;2024-01-16T11:52:10;97055.28;;;9.37;49.65
6094;BME280;19964;42.060;24.700;2024-01-16T11:54:39;97036.88;;;9.22;49.07
6094;BME280;19964;42.060;24.700;2024-01-16T12:00:19;97041.97;;;9.17;48.46
6094;BME280;19964;42.060;24.700;2024-01-16T12:02:52;97048.59;;;9.13;49.04
6094;BME280;19964;42.060;24.700;2024-01-16T12:05:20;97075.41;;;9.23;47.96
6094;BME280;19964;42.060;24.700;2024-01-16T12:07:48;97070.16;;;9.07;47.97
6094;BME280;19964;42.060;24.700;2024-01-16T12:10:20;97070.81;;;9.14;48.29
6094;BME280;19964;42.060;24.700;2024-01-16T12:12:48;97072.28;;;9.21;48.52
6094;BME280;19964;42.060;24.700;2024-01-16T12:15:17;97082.38;;;9.23;48.17
6094;BME280;19964;42.060;24.700;2024-01-16T12:17:56;97078.22;;;9.33;47.42
6094;BME280;19964;42.060;24.700;2024-01-16T12:20:25;97068.16;;;9.09;47.80
6094;BME280;19964;42.060;24.700;2024-01-16T12:22:57;97072.53;;;9.08;48.47
6094;BME280;19964;42.060;24.700;2024-01-16T12:25:24;97067.22;;;9.03;47.66
6094;BME280;19964;42.060;24.700;2024-01-16T12:27:58;97079.03;;;8.99;47.46
6094;BME280;19964;42.060;24.700;2024-01-16T12:30:26;97070.16;;;9.07;47.15
6094;BME280;19964;42.060;24.700;2024-01-16T12:33:04;97069.03;;;8.91;46.96
6094;BME280;19964;42.060;24.700;2024-01-16T12:35:35;97069.25;;;8.89;47.36
6094;BME280;19964;42.060;24.700;2024-01-16T12:38:04;97080.13;;;8.91;47.22
6094;BME280;19964;42.060;24.700;2024-01-16T12:40:32;97081.97;;;9.03;47.60
6094;BME280;19964;42.060;24.700;2024-01-16T12:43:00;97105.31;;;8.96;47.10
6094;BME280;19964;42.060;24.700;2024-01-16T12:45:27;97104.75;;;8.94;47.66
6094;BME280;19964;42.060;24.700;2024-01-16T12:47:55;97103.94;;;8.82;47.93
6094;BME280;19964;42.060;24.700;2024-01-16T12:50:26;97116.81;;;8.59;47.57
6094;BME280;19964;42.060;24.700;2024-01-16T12:53:02;97121.00;;;8.71;48.23
6094;BME280;19964;42.060;24.700;2024-01-16T12:55:30;97115.63;;;8.73;47.88
6094;BME280;19964;42.060;24.700;2024-01-16T12:58:16;97137.31;;;8.83;47.55
6094;BME280;19964;42.060;24.700;2024-01-16T13:00:43;97123.94;;;8.75;47.12
6094;BME280;19964;42.060;24.700;2024-01-16T13:03:15;97142.25;;;8.85;47.57
6094;BME280;19964;42.060;24.700;2024-01-16T13:05:46;97116.84;;;8.70;47.91
6094;BME280;19964;42.060;24.700;2024-01-16T13:08:23;97146.81;;;8.60;48.08
6094;BME280;19964;42.060;24.700;2024-01-16T13:11:02;97146.56;;;8.61;47.82
6094;BME280;19964;42.060;24.700;2024-01-16T13:13:30;97158.34;;;8.57;47.86
6094;BME280;19964;42.060;24.700;2024-01-16T13:15:58;97148.31;;;8.49;48.05